You are listening to:
KMIA Approach #2 - Miami, Florida, United States

KMIA 240053Z 00000KT 10SM FEW030 SCT120 OVC200 27/23 A3004 RMK AO2 LTG DSNT NE SLP174 T02670233 $

If stream doesn't start automatically press the play button
If stream stops then reload player then press play